sensor_id;sensor_type;location;lat;lon;timestamp;P1;durP1;ratioP1;P2;durP2;ratioP2
7324;SDS011;3703;48.016;7.802;2023-10-13T00:01:21;7.13;;;3.13;;
7324;SDS011;3703;48.016;7.802;2023-10-13T00:03:48;6.03;;;3.30;;
7324;SDS011;3703;48.016;7.802;2023-10-13T00:06:16;8.13;;;3.83;;
7324;SDS011;3703;48.016;7.802;2023-10-13T00:08:44;9.03;;;3.27;;
7324;SDS011;3703;48.016;7.802;2023-10-13T00:11:11;7.70;;;3.63;;
7324;SDS011;3703;48.016;7.802;2023-10-13T00:13:40;7.60;;;3.10;;
7324;SDS011;3703;48.016;7.802;2023-10-13T00:16:15;4.43;;;2.93;;
7324;SDS011;3703;48.016;7.802;2023-10-13T00:18:46;11.30;;;3.27;;
7324;SDS011;3703;48.016;7.802;2023-10-13T00:21:14;5.83;;;3.00;;
7324;SDS011;3703;48.016;7.802;2023-10-13T00:23:45;5.70;;;3.07;;
7324;SDS011;3703;48.016;7.802;2023-10-13T00:26:19;6.83;;;3.23;;
7324;SDS011;3703;48.016;7.802;2023-10-13T00:28:50;5.10;;;2.90;;
7324;SDS011;3703;48.016;7.802;2023-10-13T00:31:24;5.00;;;3.10;;
7324;SDS011;3703;48.016;7.802;2023-10-13T00:33:54;3.43;;;3.00;;
7324;SDS011;3703;48.016;7.802;2023-10-13T00:36:26;7.53;;;3.13;;
7324;SDS011;3703;48.016;7.802;2023-10-13T00:38:53;7.40;;;3.37;;
7324;SDS011;3703;48.016;7.802;2023-10-13T00:41:21;6.33;;;2.90;;
7324;SDS011;3703;48.016;7.802;2023-10-13T00:44:09;5.83;;;3.03;;
7324;SDS011;3703;48.016;7.802;2023-10-13T00:46:36;6.63;;;2.97;;
7324;SDS011;3703;48.016;7.802;2023-10-13T00:49:05;4.90;;;3.00;;
7324;SDS011;3703;48.016;7.802;2023-10-13T00:51:33;4.93;;;2.90;;
7324;SDS011;3703;48.016;7.802;2023-10-13T00:54:06;5.47;;;3.27;;
7324;SDS011;3703;48.016;7.802;2023-10-13T00:56:37;7.43;;;3.30;;
7324;SDS011;3703;48.016;7.802;2023-10-13T00:59:13;4.63;;;3.00;;
7324;SDS011;3703;48.016;7.802;2023-10-13T01:01:40;3.87;;;2.77;;
7324;SDS011;3703;48.016;7.802;2023-10-13T01:04:09;7.67;;;3.20;;
7324;SDS011;3703;48.016;7.802;2023-10-13T01:06:37;6.43;;;3.00;;
7324;SDS011;3703;48.016;7.802;2023-10-13T01:09:07;4.23;;;3.00;;
7324;SDS011;3703;48.016;7.802;2023-10-13T01:11:39;9.20;;;3.67;;
7324;SDS011;3703;48.016;7.802;2023-10-13T01:14:08;4.73;;;3.03;;
7324;SDS011;3703;48.016;7.802;2023-10-13T01:16:37;6.97;;;3.50;;
7324;SDS011;3703;48.016;7.802;2023-10-13T01:19:09;6.27;;;3.40;;
7324;SDS011;3703;48.016;7.802;2023-10-13T01:21:37;6.53;;;3.57;;
7324;SDS011;3703;48.016;7.802;2023-10-13T01:24:07;4.40;;;2.90;;
7324;SDS011;3703;48.016;7.802;2023-10-13T01:26:34;7.70;;;3.07;;
7324;SDS011;3703;48.016;7.802;2023-10-13T01:29:04;5.97;;;3.50;;
7324;SDS011;3703;48.016;7.802;2023-10-13T01:31:39;6.13;;;2.90;;
7324;SDS011;3703;48.016;7.802;2023-10-13T01:34:12;4.63;;;3.00;;
7324;SDS011;3703;48.016;7.802;2023-10-13T01:36:44;5.47;;;3.37;;
7324;SDS011;3703;48.016;7.802;2023-10-13T01:39:13;6.03;;;3.90;;
7324;SDS011;3703;48.016;7.802;2023-10-13T01:41:41;5.60;;;3.27;;
7324;SDS011;3703;48.016;7.802;2023-10-13T01:44:08;6.77;;;3.33;;
7324;SDS011;3703;48.016;7.802;2023-10-13T01:46:37;6.83;;;3.40;;
7324;SDS011;3703;48.016;7.802;2023-10-13T01:49:04;7.47;;;3.00;;
7324;SDS011;3703;48.016;7.802;2023-10-13T01:51:32;8.80;;;3.30;;
7324;SDS011;3703;48.016;7.802;2023-10-13T01:53:58;6.10;;;3.00;;
7324;SDS011;3703;48.016;7.802;2023-10-13T01:56:29;6.00;;;2.80;;
7324;SDS011;3703;48.016;7.802;2023-10-13T01:58:56;9.60;;;3.50;;
7324;SDS011;3703;48.016;7.802;2023-10-13T02:01:23;4.13;;;3.10;;
7324;SDS011;3703;48.016;7.802;2023-10-13T02:03:52;5.50;;;3.37;;
7324;SDS011;3703;48.016;7.802;2023-10-13T02:06:27;5.80;;;3.00;;
7324;SDS011;3703;48.016;7.802;2023-10-13T02:08:58;8.17;;;3.27;;
7324;SDS011;3703;48.016;7.802;2023-10-13T02:11:36;6.87;;;3.87;;
7324;SDS011;3703;48.016;7.802;2023-10-13T02:14:03;7.70;;;3.33;;
7324;SDS011;3703;48.016;7.802;2023-10-13T02:16:30;5.00;;;3.10;;
7324;SDS011;3703;48.016;7.802;2023-10-13T02:18:56;4.93;;;3.13;;
7324;SDS011;3703;48.016;7.802;2023-10-13T02:21:29;5.10;;;3.33;;
7324;SDS011;3703;48.016;7.802;2023-10-13T02:23:56;5.17;;;3.43;;
7324;SDS011;3703;48.016;7.802;2023-10-13T02:26:29;5.30;;;2.87;;
7324;SDS011;3703;48.016;7.802;2023-10-13T02:28:57;6.00;;;3.40;;
7324;SDS011;3703;48.016;7.802;2023-10-13T02:31:29;6.43;;;3.33;;
7324;SDS011;3703;48.016;7.802;2023-10-13T02:33:55;5.47;;;3.40;;
7324;SDS011;3703;48.016;7.802;2023-10-13T02:36:24;5.00;;;3.10;;
7324;SDS011;3703;48.016;7.802;2023-10-13T02:39:01;7.53;;;3.40;;
7324;SDS011;3703;48.016;7.802;2023-10-13T02:41:32;8.80;;;3.37;;
7324;SDS011;3703;48.016;7.802;2023-10-13T02:44:03;5.70;;;3.23;;
7324;SDS011;3703;48.016;7.802;2023-10-13T02:46:33;8.27;;;3.40;;
7324;SDS011;3703;48.016;7.802;2023-10-13T02:49:02;4.80;;;3.13;;
7324;SDS011;3703;48.016;7.802;2023-10-13T02:51:35;6.17;;;2.87;;
7324;SDS011;3703;48.016;7.802;2023-10-13T02:54:02;7.97;;;3.30;;
7324;SDS011;3703;48.016;7.802;2023-10-13T02:56:35;5.50;;;3.27;;
7324;SDS011;3703;48.016;7.802;2023-10-13T02:59:01;5.93;;;3.37;;
7324;SDS011;3703;48.016;7.802;2023-10-13T03:01:31;8.00;;;3.60;;
7324;SDS011;3703;48.016;7.802;2023-10-13T03:03:59;5.93;;;3.37;;
7324;SDS011;3703;48.016;7.802;2023-10-13T03:06:28;7.33;;;3.53;;
7324;SDS011;3703;48.016;7.802;2023-10-13T03:08:57;6.33;;;3.80;;
7324;SDS011;3703;48.016;7.802;2023-10-13T03:11:39;7.77;;;3.87;;
7324;SDS011;3703;48.016;7.802;2023-10-13T03:14:11;7.87;;;3.80;;
7324;SDS011;3703;48.016;7.802;2023-10-13T03:16:49;11.07;;;3.47;;
7324;SDS011;3703;48.016;7.802;2023-10-13T03:19:16;5.17;;;3.07;;
7324;SDS011;3703;48.016;7.802;2023-10-13T03:21:44;6.30;;;3.37;;
7324;SDS011;3703;48.016;7.802;2023-10-13T03:24:20;7.00;;;3.10;;
7324;SDS011;3703;48.016;7.802;2023-10-13T03:26:58;6.83;;;3.70;;
7324;SDS011;3703;48.016;7.802;2023-10-13T03:29:34;7.40;;;3.30;;
7324;SDS011;3703;48.016;7.802;2023-10-13T03:32:02;5.60;;;4.07;;
7324;SDS011;3703;48.016;7.802;2023-10-13T03:34:36;5.70;;;3.50;;
7324;SDS011;3703;48.016;7.802;2023-10-13T03:37:06;5.77;;;3.20;;
7324;SDS011;3703;48.016;7.802;2023-10-13T03:39:42;5.17;;;3.63;;
7324;SDS011;3703;48.016;7.802;2023-10-13T03:42:11;7.07;;;3.60;;
7324;SDS011;3703;48.016;7.802;2023-10-13T03:44:45;7.07;;;4.00;;
7324;SDS011;3703;48.016;7.802;2023-10-13T03:47:13;6.13;;;4.00;;
7324;SDS011;3703;48.016;7.802;2023-10-13T03:49:51;9.57;;;3.87;;
7324;SDS011;3703;48.016;7.802;2023-10-13T03:52:40;8.93;;;3.63;;
7324;SDS011;3703;48.016;7.802;2023-10-13T03:55:09;8.23;;;3.67;;
7324;SDS011;3703;48.016;7.802;2023-10-13T03:57:42;6.47;;;3.90;;
7324;SDS011;3703;48.016;7.802;2023-10-13T04:00:14;5.87;;;3.93;;
7324;SDS011;3703;48.016;7.802;2023-10-13T04:02:48;9.30;;;4.33;;
7324;SDS011;3703;48.016;7.802;2023-10-13T04:05:28;12.93;;;4.07;;
7324;SDS011;3703;48.016;7.802;2023-10-13T04:08:04;8.10;;;3.83;;
7324;SDS011;3703;48.016;7.802;2023-10-13T04:10:57;7.70;;;4.10;;
7324;SDS011;3703;48.016;7.802;2023-10-13T04:13:42;4.77;;;3.47;;
7324;SDS011;3703;48.016;7.802;2023-10-13T04:16:28;5.07;;;3.43;;
7324;SDS011;3703;48.016;7.802;2023-10-13T04:19:02;5.93;;;3.60;;
7324;SDS011;3703;48.016;7.802;2023-10-13T04:21:34;9.57;;;3.90;;
7324;SDS011;3703;48.016;7.802;2023-10-13T04:24:20;6.93;;;3.73;;
7324;SDS011;3703;48.016;7.802;2023-10-13T04:27:02;7.50;;;3.97;;
7324;SDS011;3703;48.016;7.802;2023-10-13T04:29:54;6.47;;;3.60;;
7324;SDS011;3703;48.016;7.802;2023-10-13T04:32:36;6.67;;;3.50;;
7324;SDS011;3703;48.016;7.802;2023-10-13T04:35:12;5.07;;;3.17;;
7324;SDS011;3703;48.016;7.802;2023-10-13T04:37:43;7.50;;;4.23;;
7324;SDS011;3703;48.016;7.802;2023-10-13T04:40:20;9.17;;;4.23;;
7324;SDS011;3703;48.016;7.802;2023-10-13T04:42:51;6.47;;;3.60;;
7324;SDS011;3703;48.016;7.802;2023-10-13T04:45:19;8.30;;;3.67;;
7324;SDS011;3703;48.016;7.802;2023-10-13T04:48:21;6.27;;;3.60;;
7324;SDS011;3703;48.016;7.802;2023-10-13T04:50:58;5.13;;;3.27;;
7324;SDS011;3703;48.016;7.802;2023-10-13T04:53:44;5.83;;;3.50;;
7324;SDS011;3703;48.016;7.802;2023-10-13T04:56:29;6.33;;;4.00;;
7324;SDS011;3703;48.016;7.802;2023-10-13T04:59:25;7.47;;;4.60;;
7324;SDS011;3703;48.016;7.802;2023-10-13T05:02:09;7.43;;;3.80;;
7324;SDS011;3703;48.016;7.802;2023-10-13T05:05:09;4.83;;;3.73;;
7324;SDS011;3703;48.016;7.802;2023-10-13T05:07:47;7.17;;;4.17;;
7324;SDS011;3703;48.016;7.802;2023-10-13T05:10:33;7.83;;;3.80;;
7324;SDS011;3703;48.016;7.802;2023-10-13T05:13:19;6.00;;;4.00;;
7324;SDS011;3703;48.016;7.802;2023-10-13T05:16:03;6.37;;;3.37;;
7324;SDS011;3703;48.016;7.802;2023-10-13T05:18:48;5.87;;;3.70;;
7324;SDS011;3703;48.016;7.802;2023-10-13T05:21:34;8.73;;;3.67;;
7324;SDS011;3703;48.016;7.802;2023-10-13T05:24:18;12.03;;;4.07;;
7324;SDS011;3703;48.016;7.802;2023-10-13T05:27:03;7.33;;;4.30;;
7324;SDS011;3703;48.016;7.802;2023-10-13T05:29:48;8.67;;;4.70;;
7324;SDS011;3703;48.016;7.802;2023-10-13T05:32:32;9.40;;;4.77;;
7324;SDS011;3703;48.016;7.802;2023-10-13T05:35:20;6.20;;;3.80;;
7324;SDS011;3703;48.016;7.802;2023-10-13T05:38:06;7.13;;;4.23;;
7324;SDS011;3703;48.016;7.802;2023-10-13T05:40:51;7.50;;;4.93;;
7324;SDS011;3703;48.016;7.802;2023-10-13T05:43:36;8.90;;;4.67;;
7324;SDS011;3703;48.016;7.802;2023-10-13T05:46:17;9.90;;;4.63;;
7324;SDS011;3703;48.016;7.802;2023-10-13T05:49:01;7.73;;;4.40;;
7324;SDS011;3703;48.016;7.802;2023-10-13T05:51:44;9.97;;;4.33;;
7324;SDS011;3703;48.016;7.802;2023-10-13T05:54:14;14.63;;;4.70;;
7324;SDS011;3703;48.016;7.802;2023-10-13T05:56:59;11.70;;;4.87;;
7324;SDS011;3703;48.016;7.802;2023-10-13T06:00:03;6.87;;;4.10;;
7324;SDS011;3703;48.016;7.802;2023-10-13T06:03:08;9.93;;;4.23;;
7324;SDS011;3703;48.016;7.802;2023-10-13T06:06:11;7.37;;;3.97;;
7324;SDS011;3703;48.016;7.802;2023-10-13T06:09:16;7.67;;;4.10;;
7324;SDS011;3703;48.016;7.802;2023-10-13T06:12:01;11.90;;;4.40;;
7324;SDS011;3703;48.016;7.802;2023-10-13T06:14:46;10.80;;;4.77;;
7324;SDS011;3703;48.016;7.802;2023-10-13T06:17:32;7.93;;;4.10;;
7324;SDS011;3703;48.016;7.802;2023-10-13T06:20:16;13.07;;;4.73;;
7324;SDS011;3703;48.016;7.802;2023-10-13T06:23:01;9.43;;;4.33;;
7324;SDS011;3703;48.016;7.802;2023-10-13T06:25:51;10.30;;;4.30;;
7324;SDS011;3703;48.016;7.802;2023-10-13T06:28:36;9.13;;;4.60;;
7324;SDS011;3703;48.016;7.802;2023-10-13T06:31:11;7.77;;;4.40;;
7324;SDS011;3703;48.016;7.802;2023-10-13T06:33:46;9.93;;;4.87;;
7324;SDS011;3703;48.016;7.802;2023-10-13T06:36:13;7.57;;;4.37;;
7324;SDS011;3703;48.016;7.802;2023-10-13T06:38:43;10.23;;;4.23;;
7324;SDS011;3703;48.016;7.802;2023-10-13T06:41:19;9.90;;;4.47;;
7324;SDS011;3703;48.016;7.802;2023-10-13T06:43:55;8.03;;;4.03;;
7324;SDS011;3703;48.016;7.802;2023-10-13T06:46:28;8.70;;;4.50;;
7324;SDS011;3703;48.016;7.802;2023-10-13T06:48:59;11.00;;;4.60;;
7324;SDS011;3703;48.016;7.802;2023-10-13T06:51:27;11.30;;;4.03;;
7324;SDS011;3703;48.016;7.802;2023-10-13T06:54:03;9.80;;;4.63;;
7324;SDS011;3703;48.016;7.802;2023-10-13T06:56:37;13.40;;;4.50;;
7324;SDS011;3703;48.016;7.802;2023-10-13T06:59:06;10.43;;;4.30;;
7324;SDS011;3703;48.016;7.802;2023-10-13T07:01:38;9.23;;;4.37;;
7324;SDS011;3703;48.016;7.802;2023-10-13T07:04:07;10.17;;;4.47;;
7324;SDS011;3703;48.016;7.802;2023-10-13T07:06:40;7.23;;;3.60;;
7324;SDS011;3703;48.016;7.802;2023-10-13T07:09:13;10.10;;;4.23;;
7324;SDS011;3703;48.016;7.802;2023-10-13T07:12:03;8.40;;;3.93;;
7324;SDS011;3703;48.016;7.802;2023-10-13T07:14:44;7.53;;;4.30;;
7324;SDS011;3703;48.016;7.802;2023-10-13T07:17:18;8.47;;;4.10;;
7324;SDS011;3703;48.016;7.802;2023-10-13T07:19:50;7.80;;;4.07;;
7324;SDS011;3703;48.016;7.802;2023-10-13T07:22:21;6.20;;;4.17;;
7324;SDS011;3703;48.016;7.802;2023-10-13T07:24:50;8.73;;;4.47;;
7324;SDS011;3703;48.016;7.802;2023-10-13T07:27:19;10.30;;;4.70;;
7324;SDS011;3703;48.016;7.802;2023-10-13T07:29:51;11.43;;;4.30;;
7324;SDS011;3703;48.016;7.802;2023-10-13T07:32:22;14.20;;;3.67;;
7324;SDS011;3703;48.016;7.802;2023-10-13T07:34:54;16.00;;;4.33;;
7324;SDS011;3703;48.016;7.802;2023-10-13T07:37:26;9.53;;;4.57;;
7324;SDS011;3703;48.016;7.802;2023-10-13T07:39:58;8.00;;;4.47;;
7324;SDS011;3703;48.016;7.802;2023-10-13T07:42:27;9.80;;;3.70;;
7324;SDS011;3703;48.016;7.802;2023-10-13T07:44:57;9.87;;;4.30;;
7324;SDS011;3703;48.016;7.802;2023-10-13T07:47:35;7.13;;;4.43;;
7324;SDS011;3703;48.016;7.802;2023-10-13T07:50:04;8.00;;;3.87;;
7324;SDS011;3703;48.016;7.802;2023-10-13T07:52:34;7.60;;;3.77;;
7324;SDS011;3703;48.016;7.802;2023-10-13T07:55:23;10.03;;;3.80;;
7324;SDS011;3703;48.016;7.802;2023-10-13T07:57:51;11.23;;;4.50;;
7324;SDS011;3703;48.016;7.802;2023-10-13T08:00:25;8.97;;;4.40;;
7324;SDS011;3703;48.016;7.802;2023-10-13T08:03:11;9.87;;;3.97;;
7324;SDS011;3703;48.016;7.802;2023-10-13T08:05:56;11.13;;;4.53;;
7324;SDS011;3703;48.016;7.802;2023-10-13T08:08:30;8.63;;;3.73;;
7324;SDS011;3703;48.016;7.802;2023-10-13T08:11:03;8.63;;;3.37;;
7324;SDS011;3703;48.016;7.802;2023-10-13T08:13:38;6.93;;;3.80;;
7324;SDS011;3703;48.016;7.802;2023-10-13T08:16:11;11.47;;;3.90;;
7324;SDS011;3703;48.016;7.802;2023-10-13T08:18:39;9.97;;;3.60;;
7324;SDS011;3703;48.016;7.802;2023-10-13T08:21:08;7.40;;;3.33;;
7324;SDS011;3703;48.016;7.802;2023-10-13T08:23:41;11.87;;;3.90;;
7324;SDS011;3703;48.016;7.802;2023-10-13T08:26:25;7.00;;;3.47;;
7324;SDS011;3703;48.016;7.802;2023-10-13T08:29:19;7.87;;;3.90;;
7324;SDS011;3703;48.016;7.802;2023-10-13T08:32:04;7.07;;;3.57;;
7324;SDS011;3703;48.016;7.802;2023-10-13T08:34:46;7.50;;;3.70;;
7324;SDS011;3703;48.016;7.802;2023-10-13T08:37:35;4.43;;;3.33;;
7324;SDS011;3703;48.016;7.802;2023-10-13T08:40:24;9.13;;;3.30;;
7324;SDS011;3703;48.016;7.802;2023-10-13T08:43:28;9.23;;;3.60;;
7324;SDS011;3703;48.016;7.802;2023-10-13T08:46:09;9.07;;;3.80;;
7324;SDS011;3703;48.016;7.802;2023-10-13T08:48:50;6.83;;;3.43;;
7324;SDS011;3703;48.016;7.802;2023-10-13T08:51:31;6.93;;;3.57;;
7324;SDS011;3703;48.016;7.802;2023-10-13T08:54:14;6.23;;;2.73;;
7324;SDS011;3703;48.016;7.802;2023-10-13T08:56:58;6.47;;;3.40;;
7324;SDS011;3703;48.016;7.802;2023-10-13T08:59:44;5.87;;;3.07;;
7324;SDS011;3703;48.016;7.802;2023-10-13T09:02:22;6.90;;;3.30;;
7324;SDS011;3703;48.016;7.802;2023-10-13T09:05:16;6.10;;;3.53;;
7324;SDS011;3703;48.016;7.802;2023-10-13T09:07:57;6.47;;;3.33;;
7324;SDS011;3703;48.016;7.802;2023-10-13T09:10:34;7.87;;;3.17;;
7324;SDS011;3703;48.016;7.802;2023-10-13T09:13:09;7.30;;;3.27;;
7324;SDS011;3703;48.016;7.802;2023-10-13T09:15:46;4.97;;;2.77;;
7324;SDS011;3703;48.016;7.802;2023-10-13T09:18:28;7.57;;;3.63;;
7324;SDS011;3703;48.016;7.802;2023-10-13T09:21:11;9.60;;;3.13;;
7324;SDS011;3703;48.016;7.802;2023-10-13T09:23:55;4.97;;;3.00;;
7324;SDS011;3703;48.016;7.802;2023-10-13T09:26:42;7.93;;;3.43;;
7324;SDS011;3703;48.016;7.802;2023-10-13T09:29:16;8.57;;;3.70;;
7324;SDS011;3703;48.016;7.802;2023-10-13T09:31:48;6.90;;;3.40;;
7324;SDS011;3703;48.016;7.802;2023-10-13T09:34:29;10.10;;;3.60;;
7324;SDS011;3703;48.016;7.802;2023-10-13T09:36:59;9.40;;;3.10;;
7324;SDS011;3703;48.016;7.802;2023-10-13T09:39:28;6.53;;;3.30;;
7324;SDS011;3703;48.016;7.802;2023-10-13T09:42:10;9.70;;;3.13;;
7324;SDS011;3703;48.016;7.802;2023-10-13T09:44:37;7.63;;;3.27;;
7324;SDS011;3703;48.016;7.802;2023-10-13T09:47:07;5.63;;;2.87;;
7324;SDS011;3703;48.016;7.802;2023-10-13T09:49:44;6.83;;;2.83;;
7324;SDS011;3703;48.016;7.802;2023-10-13T09:52:14;9.83;;;3.30;;
7324;SDS011;3703;48.016;7.802;2023-10-13T09:54:48;9.70;;;3.03;;
7324;SDS011;3703;48.016;7.802;2023-10-13T09:57:34;8.97;;;3.00;;
7324;SDS011;3703;48.016;7.802;2023-10-13T10:00:11;10.77;;;3.10;;
7324;SDS011;3703;48.016;7.802;2023-10-13T10:02:57;11.60;;;3.40;;
7324;SDS011;3703;48.016;7.802;2023-10-13T10:05:33;11.30;;;3.00;;
7324;SDS011;3703;48.016;7.802;2023-10-13T10:08:00;9.43;;;3.27;;
7324;SDS011;3703;48.016;7.802;2023-10-13T10:10:39;10.67;;;3.03;;
7324;SDS011;3703;48.016;7.802;2023-10-13T10:13:15;7.60;;;3.37;;
7324;SDS011;3703;48.016;7.802;2023-10-13T10:15:51;10.53;;;3.50;;
7324;SDS011;3703;48.016;7.802;2023-10-13T10:18:20;7.03;;;2.80;;
7324;SDS011;3703;48.016;7.802;2023-10-13T10:20:51;9.73;;;2.83;;
7324;SDS011;3703;48.016;7.802;2023-10-13T10:23:40;6.10;;;2.30;;
7324;SDS011;3703;48.016;7.802;2023-10-13T10:26:18;9.53;;;3.40;;
7324;SDS011;3703;48.016;7.802;2023-10-13T10:28:46;7.77;;;2.57;;
7324;SDS011;3703;48.016;7.802;2023-10-13T10:31:13;6.60;;;2.83;;
7324;SDS011;3703;48.016;7.802;2023-10-13T10:33:42;6.53;;;2.50;;
7324;SDS011;3703;48.016;7.802;2023-10-13T10:36:13;7.90;;;2.80;;
7324;SDS011;3703;48.016;7.802;2023-10-13T10:38:51;9.97;;;2.90;;
7324;SDS011;3703;48.016;7.802;2023-10-13T10:41:27;14.23;;;3.10;;
7324;SDS011;3703;48.016;7.802;2023-10-13T10:44:09;5.10;;;2.97;;
7324;SDS011;3703;48.016;7.802;2023-10-13T10:46:41;5.83;;;3.00;;
7324;SDS011;3703;48.016;7.802;2023-10-13T10:49:36;6.20;;;2.83;;
7324;SDS011;3703;48.016;7.802;2023-10-13T10:52:08;5.83;;;2.60;;
7324;SDS011;3703;48.016;7.802;2023-10-13T10:54:43;5.77;;;2.80;;
7324;SDS011;3703;48.016;7.802;2023-10-13T10:57:19;5.23;;;2.57;;
7324;SDS011;3703;48.016;7.802;2023-10-13T11:00:17;8.87;;;3.70;;
7324;SDS011;3703;48.016;7.802;2023-10-13T11:03:04;7.13;;;3.10;;
7324;SDS011;3703;48.016;7.802;2023-10-13T11:05:41;7.03;;;3.23;;
7324;SDS011;3703;48.016;7.802;2023-10-13T11:08:21;7.07;;;2.70;;
7324;SDS011;3703;48.016;7.802;2023-10-13T11:10:57;9.47;;;3.27;;
7324;SDS011;3703;48.016;7.802;2023-10-13T11:13:25;5.67;;;3.10;;
7324;SDS011;3703;48.016;7.802;2023-10-13T11:15:55;6.37;;;2.70;;
7324;SDS011;3703;48.016;7.802;2023-10-13T11:18:28;7.13;;;2.70;;
7324;SDS011;3703;48.016;7.802;2023-10-13T11:21:02;8.03;;;3.13;;
7324;SDS011;3703;48.016;7.802;2023-10-13T11:23:33;5.80;;;2.50;;
7324;SDS011;3703;48.016;7.802;2023-10-13T11:26:01;9.43;;;2.50;;
7324;SDS011;3703;48.016;7.802;2023-10-13T11:28:30;5.57;;;2.55;;
7324;SDS011;3703;48.016;7.802;2023-10-13T11:30:59;3.83;;;2.87;;
7324;SDS011;3703;48.016;7.802;2023-10-13T11:33:36;6.15;;;2.75;;
7324;SDS011;3703;48.016;7.802;2023-10-13T11:36:14;3.88;;;2.67;;
7324;SDS011;3703;48.016;7.802;2023-10-13T11:38:44;6.93;;;2.83;;
7324;SDS011;3703;48.016;7.802;2023-10-13T11:41:16;7.22;;;3.13;;
7324;SDS011;3703;48.016;7.802;2023-10-13T11:43:45;7.57;;;2.80;;
7324;SDS011;3703;48.016;7.802;2023-10-13T11:46:38;4.03;;;2.70;;
7324;SDS011;3703;48.016;7.802;2023-10-13T11:49:22;6.47;;;3.28;;
7324;SDS011;3703;48.016;7.802;2023-10-13T11:52:03;6.20;;;2.83;;
7324;SDS011;3703;48.016;7.802;2023-10-13T11:54:43;5.70;;;2.50;;
7324;SDS011;3703;48.016;7.802;2023-10-13T11:57:12;5.85;;;2.97;;
7324;SDS011;3703;48.016;7.802;2023-10-13T11:59:42;6.93;;;2.67;;
7324;SDS011;3703;48.016;7.802;2023-10-13T12:02:21;8.07;;;3.00;;
7324;SDS011;3703;48.016;7.802;2023-10-13T12:05:06;6.13;;;3.00;;
7324;SDS011;3703;48.016;7.802;2023-10-13T12:07:52;5.55;;;3.15;;
7324;SDS011;3703;48.016;7.802;2023-10-13T12:10:29;8.30;;;2.63;;
7324;SDS011;3703;48.016;7.802;2023-10-13T12:13:04;5.30;;;2.58;;
7324;SDS011;3703;48.016;7.802;2023-10-13T12:15:36;4.78;;;2.70;;
7324;SDS011;3703;48.016;7.802;2023-10-13T12:18:13;5.55;;;3.13;;
7324;SDS011;3703;48.016;7.802;2023-10-13T12:20:42;3.55;;;2.67;;
7324;SDS011;3703;48.016;7.802;2023-10-13T12:23:12;11.55;;;3.08;;
7324;SDS011;3703;48.016;7.802;2023-10-13T12:25:44;12.05;;;2.88;;
7324;SDS011;3703;48.016;7.802;2023-10-13T12:28:22;6.07;;;3.00;;
7324;SDS011;3703;48.016;7.802;2023-10-13T12:30:51;9.70;;;3.17;;
7324;SDS011;3703;48.016;7.802;2023-10-13T12:33:20;6.03;;;3.03;;
7324;SDS011;3703;48.016;7.802;2023-10-13T12:35:55;6.50;;;2.95;;
7324;SDS011;3703;48.016;7.802;2023-10-13T12:38:40;8.75;;;2.80;;
7324;SDS011;3703;48.016;7.802;2023-10-13T12:41:26;4.53;;;2.72;;
7324;SDS011;3703;48.016;7.802;2023-10-13T12:44:11;6.22;;;2.60;;
7324;SDS011;3703;48.016;7.802;2023-10-13T12:46:56;6.28;;;2.75;;
7324;SDS011;3703;48.016;7.802;2023-10-13T12:49:40;3.75;;;2.63;;
7324;SDS011;3703;48.016;7.802;2023-10-13T12:52:23;5.45;;;2.85;;
7324;SDS011;3703;48.016;7.802;2023-10-13T12:54:57;7.28;;;2.70;;
7324;SDS011;3703;48.016;7.802;2023-10-13T12:57:36;7.85;;;2.67;;
7324;SDS011;3703;48.016;7.802;2023-10-13T13:00:13;10.55;;;3.15;;
7324;SDS011;3703;48.016;7.802;2023-10-13T13:02:46;7.63;;;2.78;;
7324;SDS011;3703;48.016;7.802;2023-10-13T13:05:15;8.85;;;2.92;;
7324;SDS011;3703;48.016;7.802;2023-10-13T13:07:47;4.40;;;2.60;;
7324;SDS011;3703;48.016;7.802;2023-10-13T13:10:17;7.15;;;2.97;;
7324;SDS011;3703;48.016;7.802;2023-10-13T13:12:47;6.65;;;2.95;;
7324;SDS011;3703;48.016;7.802;2023-10-13T13:15:14;7.75;;;3.00;;
7324;SDS011;3703;48.016;7.802;2023-10-13T13:17:48;6.63;;;2.90;;
7324;SDS011;3703;48.016;7.802;2023-10-13T13:20:16;5.35;;;2.90;;
7324;SDS011;3703;48.016;7.802;2023-10-13T13:22:53;7.05;;;2.63;;
7324;SDS011;3703;48.016;7.802;2023-10-13T13:25:20;8.40;;;2.75;;
7324;SDS011;3703;48.016;7.802;2023-10-13T13:27:56;7.63;;;2.70;;
7324;SDS011;3703;48.016;7.802;2023-10-13T13:30:29;6.13;;;2.70;;
7324;SDS011;3703;48.016;7.802;2023-10-13T13:32:58;7.97;;;2.90;;
7324;SDS011;3703;48.016;7.802;2023-10-13T13:35:29;5.00;;;2.50;;
7324;SDS011;3703;48.016;7.802;2023-10-13T13:38:00;5.70;;;3.00;;
7324;SDS011;3703;48.016;7.802;2023-10-13T13:40:35;6.60;;;2.70;;
7324;SDS011;3703;48.016;7.802;2023-10-13T13:43:06;6.73;;;3.10;;
7324;SDS011;3703;48.016;7.802;2023-10-13T13:45:44;9.87;;;2.70;;
7324;SDS011;3703;48.016;7.802;2023-10-13T13:48:11;7.07;;;2.93;;
7324;SDS011;3703;48.016;7.802;2023-10-13T13:50:40;9.93;;;2.60;;
7324;SDS011;3703;48.016;7.802;2023-10-13T13:53:09;6.30;;;2.50;;
7324;SDS011;3703;48.016;7.802;2023-10-13T13:55:55;5.40;;;2.40;;
7324;SDS011;3703;48.016;7.802;2023-10-13T13:58:46;6.43;;;2.73;;
7324;SDS011;3703;48.016;7.802;2023-10-13T14:01:34;8.87;;;2.57;;
7324;SDS011;3703;48.016;7.802;2023-10-13T14:04:21;4.00;;;2.30;;
7324;SDS011;3703;48.016;7.802;2023-10-13T14:07:07;6.40;;;2.80;;
7324;SDS011;3703;48.016;7.802;2023-10-13T14:09:52;7.33;;;2.20;;
7324;SDS011;3703;48.016;7.802;2023-10-13T14:12:49;7.03;;;2.90;;
7324;SDS011;3703;48.016;7.802;2023-10-13T14:15:35;5.50;;;2.70;;
7324;SDS011;3703;48.016;7.802;2023-10-13T14:18:27;3.83;;;2.17;;
7324;SDS011;3703;48.016;7.802;2023-10-13T14:21:14;8.87;;;2.77;;
7324;SDS011;3703;48.016;7.802;2023-10-13T14:24:01;6.17;;;2.70;;
7324;SDS011;3703;48.016;7.802;2023-10-13T14:26:57;5.20;;;2.30;;
7324;SDS011;3703;48.016;7.802;2023-10-13T14:29:51;7.20;;;2.40;;
7324;SDS011;3703;48.016;7.802;2023-10-13T14:32:42;5.17;;;2.90;;
7324;SDS011;3703;48.016;7.802;2023-10-13T14:35:28;7.77;;;2.60;;
7324;SDS011;3703;48.016;7.802;2023-10-13T14:38:14;7.57;;;2.70;;
7324;SDS011;3703;48.016;7.802;2023-10-13T14:41:00;4.00;;;2.20;;
7324;SDS011;3703;48.016;7.802;2023-10-13T14:43:45;4.10;;;2.50;;
7324;SDS011;3703;48.016;7.802;2023-10-13T14:46:32;5.67;;;2.60;;
7324;SDS011;3703;48.016;7.802;2023-10-13T14:49:21;6.07;;;3.07;;
7324;SDS011;3703;48.016;7.802;2023-10-13T14:52:07;3.70;;;2.20;;
7324;SDS011;3703;48.016;7.802;2023-10-13T14:54:52;6.37;;;2.70;;
7324;SDS011;3703;48.016;7.802;2023-10-13T14:57:40;6.87;;;2.57;;
7324;SDS011;3703;48.016;7.802;2023-10-13T15:00:25;6.73;;;3.33;;
7324;SDS011;3703;48.016;7.802;2023-10-13T15:03:11;6.50;;;2.53;;
7324;SDS011;3703;48.016;7.802;2023-10-13T15:05:58;8.87;;;2.70;;
7324;SDS011;3703;48.016;7.802;2023-10-13T15:08:45;4.37;;;2.57;;
7324;SDS011;3703;48.016;7.802;2023-10-13T15:11:32;7.97;;;2.80;;
7324;SDS011;3703;48.016;7.802;2023-10-13T15:14:20;7.57;;;2.50;;
7324;SDS011;3703;48.016;7.802;2023-10-13T15:16:48;9.20;;;3.00;;
7324;SDS011;3703;48.016;7.802;2023-10-13T15:19:17;4.63;;;2.43;;
7324;SDS011;3703;48.016;7.802;2023-10-13T15:21:46;9.73;;;4.70;;
7324;SDS011;3703;48.016;7.802;2023-10-13T15:24:15;10.03;;;3.90;;
7324;SDS011;3703;48.016;7.802;2023-10-13T15:26:43;16.47;;;8.73;;
7324;SDS011;3703;48.016;7.802;2023-10-13T15:29:13;14.20;;;6.43;;
7324;SDS011;3703;48.016;7.802;2023-10-13T15:31:42;11.37;;;4.83;;
7324;SDS011;3703;48.016;7.802;2023-10-13T15:34:29;19.00;;;8.50;;
7324;SDS011;3703;48.016;7.802;2023-10-13T15:36:59;20.73;;;8.93;;
7324;SDS011;3703;48.016;7.802;2023-10-13T15:39:30;16.50;;;8.03;;
7324;SDS011;3703;48.016;7.802;2023-10-13T15:41:57;23.37;;;10.67;;
7324;SDS011;3703;48.016;7.802;2023-10-13T15:44:24;8.77;;;4.83;;
7324;SDS011;3703;48.016;7.802;2023-10-13T15:46:55;8.80;;;5.47;;
7324;SDS011;3703;48.016;7.802;2023-10-13T15:49:24;19.53;;;8.00;;
7324;SDS011;3703;48.016;7.802;2023-10-13T15:51:52;10.23;;;4.60;;
7324;SDS011;3703;48.016;7.802;2023-10-13T15:54:22;9.33;;;5.07;;
7324;SDS011;3703;48.016;7.802;2023-10-13T15:56:50;14.20;;;7.37;;
7324;SDS011;3703;48.016;7.802;2023-10-13T15:59:17;11.23;;;5.57;;
7324;SDS011;3703;48.016;7.802;2023-10-13T16:01:44;9.27;;;4.63;;
7324;SDS011;3703;48.016;7.802;2023-10-13T16:04:13;11.80;;;4.33;;
7324;SDS011;3703;48.016;7.802;2023-10-13T16:06:40;11.00;;;5.37;;
7324;SDS011;3703;48.016;7.802;2023-10-13T16:09:11;11.47;;;5.00;;